sensor_id;sensor_type;location;lat;lon;timestamp;P1;durP1;ratioP1;P2;durP2;ratioP2
9906;SDS011;4992;51.628;6.664;2023-04-24T00:01:47;1.43;;;1.10;;
9906;SDS011;4992;51.628;6.664;2023-04-24T00:04:13;1.80;;;1.47;;
9906;SDS011;4992;51.628;6.664;2023-04-24T00:06:41;2.47;;;1.30;;
9906;SDS011;4992;51.628;6.664;2023-04-24T00:09:08;1.57;;;1.47;;
9906;SDS011;4992;51.628;6.664;2023-04-24T00:11:35;1.63;;;1.53;;
9906;SDS011;4992;51.628;6.664;2023-04-24T00:14:01;1.50;;;1.40;;
9906;SDS011;4992;51.628;6.664;2023-04-24T00:16:27;2.07;;;1.63;;
9906;SDS011;4992;51.628;6.664;2023-04-24T00:18:53;1.50;;;1.40;;
9906;SDS011;4992;51.628;6.664;2023-04-24T00:21:19;4.30;;;1.43;;
9906;SDS011;4992;51.628;6.664;2023-04-24T00:23:45;2.00;;;1.77;;
9906;SDS011;4992;51.628;6.664;2023-04-24T00:26:11;4.03;;;2.17;;
9906;SDS011;4992;51.628;6.664;2023-04-24T00:28:37;3.33;;;1.83;;
9906;SDS011;4992;51.628;6.664;2023-04-24T00:31:03;2.13;;;1.93;;
9906;SDS011;4992;51.628;6.664;2023-04-24T00:33:29;3.63;;;1.87;;
9906;SDS011;4992;51.628;6.664;2023-04-24T00:35:55;1.93;;;1.73;;
9906;SDS011;4992;51.628;6.664;2023-04-24T00:38:21;3.70;;;2.10;;
9906;SDS011;4992;51.628;6.664;2023-04-24T00:40:47;2.67;;;2.40;;
9906;SDS011;4992;51.628;6.664;2023-04-24T00:43:15;2.37;;;2.17;;
9906;SDS011;4992;51.628;6.664;2023-04-24T00:45:41;2.10;;;2.00;;
9906;SDS011;4992;51.628;6.664;2023-04-24T00:48:07;3.00;;;2.80;;
9906;SDS011;4992;51.628;6.664;2023-04-24T00:50:35;3.40;;;2.50;;
9906;SDS011;4992;51.628;6.664;2023-04-24T00:53:01;5.20;;;2.63;;
9906;SDS011;4992;51.628;6.664;2023-04-24T00:55:27;2.83;;;2.47;;
9906;SDS011;4992;51.628;6.664;2023-04-24T00:57:53;2.57;;;2.33;;
9906;SDS011;4992;51.628;6.664;2023-04-24T01:00:19;6.43;;;2.37;;
9906;SDS011;4992;51.628;6.664;2023-04-24T01:02:45;2.93;;;2.57;;
9906;SDS011;4992;51.628;6.664;2023-04-24T01:05:12;3.37;;;2.50;;
9906;SDS011;4992;51.628;6.664;2023-04-24T01:07:38;2.97;;;2.40;;
9906;SDS011;4992;51.628;6.664;2023-04-24T01:10:05;2.97;;;2.60;;
9906;SDS011;4992;51.628;6.664;2023-04-24T01:12:32;3.80;;;3.00;;
9906;SDS011;4992;51.628;6.664;2023-04-24T01:14:58;3.03;;;2.83;;
9906;SDS011;4992;51.628;6.664;2023-04-24T01:17:24;3.67;;;3.27;;
9906;SDS011;4992;51.628;6.664;2023-04-24T01:19:50;3.57;;;3.27;;
9906;SDS011;4992;51.628;6.664;2023-04-24T01:22:21;5.03;;;3.90;;
9906;SDS011;4992;51.628;6.664;2023-04-24T01:24:47;4.10;;;3.70;;
9906;SDS011;4992;51.628;6.664;2023-04-24T01:27:13;4.67;;;3.80;;
9906;SDS011;4992;51.628;6.664;2023-04-24T01:29:40;6.03;;;4.80;;
9906;SDS011;4992;51.628;6.664;2023-04-24T01:32:06;5.63;;;5.03;;
9906;SDS011;4992;51.628;6.664;2023-04-24T01:34:32;5.20;;;4.70;;
9906;SDS011;4992;51.628;6.664;2023-04-24T01:36:59;7.90;;;5.70;;
9906;SDS011;4992;51.628;6.664;2023-04-24T01:39:25;7.77;;;5.33;;
9906;SDS011;4992;51.628;6.664;2023-04-24T01:41:53;6.43;;;5.40;;
9906;SDS011;4992;51.628;6.664;2023-04-24T01:44:19;10.20;;;6.40;;
9906;SDS011;4992;51.628;6.664;2023-04-24T01:46:45;7.63;;;5.60;;
9906;SDS011;4992;51.628;6.664;2023-04-24T01:49:11;6.03;;;5.07;;
9906;SDS011;4992;51.628;6.664;2023-04-24T01:51:37;7.93;;;5.63;;
9906;SDS011;4992;51.628;6.664;2023-04-24T01:54:03;5.90;;;5.30;;
9906;SDS011;4992;51.628;6.664;2023-04-24T01:56:30;6.93;;;5.87;;
9906;SDS011;4992;51.628;6.664;2023-04-24T01:58:56;7.67;;;5.70;;
9906;SDS011;4992;51.628;6.664;2023-04-24T02:01:23;5.80;;;5.30;;
9906;SDS011;4992;51.628;6.664;2023-04-24T02:03:50;6.37;;;5.73;;
9906;SDS011;4992;51.628;6.664;2023-04-24T02:06:16;7.97;;;6.40;;
9906;SDS011;4992;51.628;6.664;2023-04-24T02:08:42;7.57;;;5.47;;
9906;SDS011;4992;51.628;6.664;2023-04-24T02:11:10;6.77;;;5.50;;
9906;SDS011;4992;51.628;6.664;2023-04-24T02:13:36;7.80;;;5.47;;
9906;SDS011;4992;51.628;6.664;2023-04-24T02:16:02;6.60;;;5.80;;
9906;SDS011;4992;51.628;6.664;2023-04-24T02:18:28;9.30;;;6.57;;
9906;SDS011;4992;51.628;6.664;2023-04-24T02:20:55;8.30;;;6.93;;
9906;SDS011;4992;51.628;6.664;2023-04-24T02:23:21;8.63;;;7.57;;
9906;SDS011;4992;51.628;6.664;2023-04-24T02:25:47;11.93;;;8.00;;
9906;SDS011;4992;51.628;6.664;2023-04-24T02:28:13;13.33;;;7.93;;
9906;SDS011;4992;51.628;6.664;2023-04-24T02:30:39;10.53;;;7.63;;
9906;SDS011;4992;51.628;6.664;2023-04-24T02:33:05;9.37;;;8.30;;
9906;SDS011;4992;51.628;6.664;2023-04-24T02:35:32;10.97;;;8.17;;
9906;SDS011;4992;51.628;6.664;2023-04-24T02:37:58;11.70;;;8.63;;
9906;SDS011;4992;51.628;6.664;2023-04-24T02:40:24;11.40;;;8.63;;
9906;SDS011;4992;51.628;6.664;2023-04-24T02:42:50;10.00;;;8.23;;
9906;SDS011;4992;51.628;6.664;2023-04-24T02:45:15;10.23;;;9.23;;
9906;SDS011;4992;51.628;6.664;2023-04-24T02:47:41;10.00;;;8.93;;
9906;SDS011;4992;51.628;6.664;2023-04-24T02:50:07;11.87;;;9.27;;
9906;SDS011;4992;51.628;6.664;2023-04-24T02:52:33;12.60;;;9.47;;
9906;SDS011;4992;51.628;6.664;2023-04-24T02:54:59;12.97;;;10.33;;
9906;SDS011;4992;51.628;6.664;2023-04-24T02:57:25;11.33;;;10.00;;
9906;SDS011;4992;51.628;6.664;2023-04-24T02:59:51;12.70;;;10.03;;
9906;SDS011;4992;51.628;6.664;2023-04-24T03:02:17;12.43;;;10.33;;
9906;SDS011;4992;51.628;6.664;2023-04-24T03:04:43;13.37;;;9.80;;
9906;SDS011;4992;51.628;6.664;2023-04-24T03:07:09;13.60;;;10.53;;
9906;SDS011;4992;51.628;6.664;2023-04-24T03:09:35;14.97;;;11.27;;
9906;SDS011;4992;51.628;6.664;2023-04-24T03:12:01;12.77;;;10.67;;
9906;SDS011;4992;51.628;6.664;2023-04-24T03:14:27;12.53;;;10.90;;
9906;SDS011;4992;51.628;6.664;2023-04-24T03:16:56;17.27;;;11.07;;
9906;SDS011;4992;51.628;6.664;2023-04-24T03:19:22;14.30;;;11.90;;
9906;SDS011;4992;51.628;6.664;2023-04-24T03:21:48;12.67;;;11.17;;
9906;SDS011;4992;51.628;6.664;2023-04-24T03:24:14;14.07;;;12.37;;
9906;SDS011;4992;51.628;6.664;2023-04-24T03:26:40;13.00;;;11.17;;
9906;SDS011;4992;51.628;6.664;2023-04-24T03:29:06;15.07;;;11.67;;
9906;SDS011;4992;51.628;6.664;2023-04-24T03:31:32;15.47;;;11.23;;
9906;SDS011;4992;51.628;6.664;2023-04-24T03:33:57;15.73;;;11.07;;
9906;SDS011;4992;51.628;6.664;2023-04-24T03:36:23;14.97;;;12.10;;
9906;SDS011;4992;51.628;6.664;2023-04-24T03:38:50;13.07;;;10.70;;
9906;SDS011;4992;51.628;6.664;2023-04-24T03:41:16;15.30;;;11.37;;
9906;SDS011;4992;51.628;6.664;2023-04-24T03:43:42;11.33;;;10.20;;
9906;SDS011;4992;51.628;6.664;2023-04-24T03:46:08;17.30;;;10.17;;
9906;SDS011;4992;51.628;6.664;2023-04-24T03:48:34;12.40;;;10.37;;
9906;SDS011;4992;51.628;6.664;2023-04-24T03:51:00;13.57;;;11.13;;
9906;SDS011;4992;51.628;6.664;2023-04-24T03:53:26;12.40;;;10.70;;
9906;SDS011;4992;51.628;6.664;2023-04-24T03:55:52;14.83;;;11.53;;
9906;SDS011;4992;51.628;6.664;2023-04-24T03:58:18;12.33;;;10.73;;
9906;SDS011;4992;51.628;6.664;2023-04-24T04:00:44;13.40;;;11.27;;
9906;SDS011;4992;51.628;6.664;2023-04-24T04:03:12;13.00;;;10.80;;
9906;SDS011;4992;51.628;6.664;2023-04-24T04:05:39;13.10;;;10.73;;
9906;SDS011;4992;51.628;6.664;2023-04-24T04:08:05;14.87;;;10.37;;
9906;SDS011;4992;51.628;6.664;2023-04-24T04:10:31;11.17;;;10.07;;
9906;SDS011;4992;51.628;6.664;2023-04-24T04:12:57;14.60;;;10.83;;
9906;SDS011;4992;51.628;6.664;2023-04-24T04:15:23;13.57;;;10.13;;
9906;SDS011;4992;51.628;6.664;2023-04-24T04:17:49;11.83;;;10.07;;
9906;SDS011;4992;51.628;6.664;2023-04-24T04:20:15;13.73;;;10.97;;
9906;SDS011;4992;51.628;6.664;2023-04-24T04:22:41;13.47;;;10.30;;
9906;SDS011;4992;51.628;6.664;2023-04-24T04:25:07;11.87;;;9.97;;
9906;SDS011;4992;51.628;6.664;2023-04-24T04:27:33;13.13;;;9.43;;
9906;SDS011;4992;51.628;6.664;2023-04-24T04:29:59;15.73;;;9.67;;
9906;SDS011;4992;51.628;6.664;2023-04-24T04:32:29;13.80;;;9.90;;
9906;SDS011;4992;51.628;6.664;2023-04-24T04:34:55;14.67;;;9.93;;
9906;SDS011;4992;51.628;6.664;2023-04-24T04:37:21;11.20;;;9.13;;
9906;SDS011;4992;51.628;6.664;2023-04-24T04:39:47;12.87;;;9.93;;
9906;SDS011;4992;51.628;6.664;2023-04-24T04:42:13;11.97;;;9.53;;
9906;SDS011;4992;51.628;6.664;2023-04-24T04:44:40;12.10;;;9.43;;
9906;SDS011;4992;51.628;6.664;2023-04-24T04:47:06;12.73;;;9.83;;
9906;SDS011;4992;51.628;6.664;2023-04-24T04:49:33;11.80;;;9.63;;
9906;SDS011;4992;51.628;6.664;2023-04-24T04:51:59;12.30;;;8.90;;
9906;SDS011;4992;51.628;6.664;2023-04-24T04:54:25;15.63;;;9.43;;
9906;SDS011;4992;51.628;6.664;2023-04-24T04:56:51;11.80;;;8.83;;
9906;SDS011;4992;51.628;6.664;2023-04-24T04:59:18;10.17;;;9.00;;
9906;SDS011;4992;51.628;6.664;2023-04-24T05:01:44;16.23;;;9.90;;
9906;SDS011;4992;51.628;6.664;2023-04-24T05:04:10;16.70;;;9.83;;
9906;SDS011;4992;51.628;6.664;2023-04-24T05:06:35;11.47;;;9.73;;
9906;SDS011;4992;51.628;6.664;2023-04-24T05:09:01;13.13;;;9.53;;
9906;SDS011;4992;51.628;6.664;2023-04-24T05:11:28;14.07;;;10.30;;
9906;SDS011;4992;51.628;6.664;2023-04-24T05:13:55;9.57;;;8.67;;
9906;SDS011;4992;51.628;6.664;2023-04-24T05:16:21;11.87;;;9.40;;
9906;SDS011;4992;51.628;6.664;2023-04-24T05:18:47;13.27;;;9.57;;
9906;SDS011;4992;51.628;6.664;2023-04-24T05:21:13;13.37;;;9.20;;
9906;SDS011;4992;51.628;6.664;2023-04-24T05:23:38;10.40;;;9.17;;
9906;SDS011;4992;51.628;6.664;2023-04-24T05:26:04;15.13;;;10.00;;
9906;SDS011;4992;51.628;6.664;2023-04-24T05:28:31;13.23;;;8.57;;
9906;SDS011;4992;51.628;6.664;2023-04-24T05:30:57;13.07;;;9.17;;
9906;SDS011;4992;51.628;6.664;2023-04-24T05:33:24;10.10;;;8.67;;
9906;SDS011;4992;51.628;6.664;2023-04-24T05:35:50;9.63;;;7.47;;
9906;SDS011;4992;51.628;6.664;2023-04-24T05:38:16;9.53;;;8.07;;
9906;SDS011;4992;51.628;6.664;2023-04-24T05:40:45;7.97;;;6.87;;
9906;SDS011;4992;51.628;6.664;2023-04-24T05:43:12;10.33;;;7.70;;
9906;SDS011;4992;51.628;6.664;2023-04-24T05:45:38;8.67;;;7.03;;
9906;SDS011;4992;51.628;6.664;2023-04-24T05:48:04;8.20;;;7.00;;
9906;SDS011;4992;51.628;6.664;2023-04-24T05:50:30;9.73;;;7.37;;
9906;SDS011;4992;51.628;6.664;2023-04-24T05:52:56;7.33;;;6.63;;
9906;SDS011;4992;51.628;6.664;2023-04-24T05:55:27;9.13;;;6.93;;
9906;SDS011;4992;51.628;6.664;2023-04-24T05:57:53;14.37;;;8.00;;
9906;SDS011;4992;51.628;6.664;2023-04-24T06:00:19;11.37;;;7.80;;
9906;SDS011;4992;51.628;6.664;2023-04-24T06:02:45;8.57;;;7.67;;
9906;SDS011;4992;51.628;6.664;2023-04-24T06:05:12;8.33;;;7.53;;
9906;SDS011;4992;51.628;6.664;2023-04-24T06:07:37;8.97;;;7.70;;
9906;SDS011;4992;51.628;6.664;2023-04-24T06:10:03;8.90;;;7.67;;
9906;SDS011;4992;51.628;6.664;2023-04-24T06:12:30;9.27;;;8.37;;
9906;SDS011;4992;51.628;6.664;2023-04-24T06:14:56;9.87;;;8.27;;
9906;SDS011;4992;51.628;6.664;2023-04-24T06:17:22;9.80;;;8.30;;
9906;SDS011;4992;51.628;6.664;2023-04-24T06:19:47;9.13;;;8.33;;
9906;SDS011;4992;51.628;6.664;2023-04-24T06:22:13;9.13;;;8.17;;
9906;SDS011;4992;51.628;6.664;2023-04-24T06:24:40;9.43;;;8.00;;
9906;SDS011;4992;51.628;6.664;2023-04-24T06:27:06;9.40;;;8.07;;
9906;SDS011;4992;51.628;6.664;2023-04-24T06:29:32;11.57;;;8.40;;
9906;SDS011;4992;51.628;6.664;2023-04-24T06:31:58;9.33;;;8.27;;
9906;SDS011;4992;51.628;6.664;2023-04-24T06:34:24;11.27;;;9.03;;
9906;SDS011;4992;51.628;6.664;2023-04-24T06:36:50;10.10;;;9.10;;
9906;SDS011;4992;51.628;6.664;2023-04-24T06:39:16;10.03;;;8.83;;
9906;SDS011;4992;51.628;6.664;2023-04-24T06:41:42;9.80;;;8.27;;
9906;SDS011;4992;51.628;6.664;2023-04-24T06:44:08;8.83;;;7.97;;
9906;SDS011;4992;51.628;6.664;2023-04-24T06:46:34;9.90;;;6.90;;
9906;SDS011;4992;51.628;6.664;2023-04-24T06:49:00;8.20;;;7.20;;
9906;SDS011;4992;51.628;6.664;2023-04-24T06:51:26;9.17;;;6.83;;
9906;SDS011;4992;51.628;6.664;2023-04-24T06:53:53;6.70;;;6.10;;
9906;SDS011;4992;51.628;6.664;2023-04-24T06:56:19;6.90;;;6.10;;
9906;SDS011;4992;51.628;6.664;2023-04-24T06:58:45;7.13;;;5.63;;
9906;SDS011;4992;51.628;6.664;2023-04-24T07:01:11;7.20;;;6.33;;
9906;SDS011;4992;51.628;6.664;2023-04-24T07:03:37;6.57;;;5.97;;
9906;SDS011;4992;51.628;6.664;2023-04-24T07:06:04;6.17;;;5.57;;
9906;SDS011;4992;51.628;6.664;2023-04-24T07:08:30;5.97;;;5.37;;
9906;SDS011;4992;51.628;6.664;2023-04-24T07:10:56;5.97;;;5.30;;
9906;SDS011;4992;51.628;6.664;2023-04-24T07:13:23;6.17;;;5.50;;
9906;SDS011;4992;51.628;6.664;2023-04-24T07:15:49;6.43;;;5.30;;
9906;SDS011;4992;51.628;6.664;2023-04-24T07:18:17;5.73;;;4.90;;
9906;SDS011;4992;51.628;6.664;2023-04-24T07:20:43;5.43;;;4.87;;
9906;SDS011;4992;51.628;6.664;2023-04-24T07:23:09;3.53;;;3.23;;
9906;SDS011;4992;51.628;6.664;2023-04-24T07:25:36;4.47;;;4.03;;
9906;SDS011;4992;51.628;6.664;2023-04-24T07:28:04;3.23;;;2.83;;
9906;SDS011;4992;51.628;6.664;2023-04-24T07:30:30;3.67;;;2.40;;
9906;SDS011;4992;51.628;6.664;2023-04-24T07:32:57;3.20;;;2.90;;
9906;SDS011;4992;51.628;6.664;2023-04-24T07:35:23;2.23;;;2.03;;
9906;SDS011;4992;51.628;6.664;2023-04-24T07:37:50;1.90;;;1.80;;
9906;SDS011;4992;51.628;6.664;2023-04-24T07:40:16;2.77;;;1.87;;
9906;SDS011;4992;51.628;6.664;2023-04-24T07:42:42;1.83;;;1.70;;
9906;SDS011;4992;51.628;6.664;2023-04-24T07:45:08;1.80;;;1.40;;
9906;SDS011;4992;51.628;6.664;2023-04-24T07:47:35;2.47;;;1.47;;
9906;SDS011;4992;51.628;6.664;2023-04-24T07:50:02;1.30;;;1.20;;
9906;SDS011;4992;51.628;6.664;2023-04-24T07:52:28;1.30;;;1.30;;
9906;SDS011;4992;51.628;6.664;2023-04-24T07:54:54;1.60;;;1.40;;
9906;SDS011;4992;51.628;6.664;2023-04-24T07:57:23;1.60;;;1.50;;
9906;SDS011;4992;51.628;6.664;2023-04-24T07:59:50;1.80;;;1.53;;
9906;SDS011;4992;51.628;6.664;2023-04-24T08:02:16;1.63;;;1.53;;
9906;SDS011;4992;51.628;6.664;2023-04-24T08:04:42;1.60;;;1.50;;
9906;SDS011;4992;51.628;6.664;2023-04-24T08:07:08;2.20;;;1.83;;
9906;SDS011;4992;51.628;6.664;2023-04-24T08:09:34;1.93;;;1.63;;
9906;SDS011;4992;51.628;6.664;2023-04-24T08:12:00;6.00;;;1.90;;
9906;SDS011;4992;51.628;6.664;2023-04-24T08:14:27;1.53;;;1.43;;
9906;SDS011;4992;51.628;6.664;2023-04-24T08:16:53;1.70;;;1.60;;
9906;SDS011;4992;51.628;6.664;2023-04-24T08:19:20;1.60;;;1.50;;
9906;SDS011;4992;51.628;6.664;2023-04-24T08:21:46;2.10;;;2.00;;
9906;SDS011;4992;51.628;6.664;2023-04-24T08:24:12;2.13;;;2.00;;
9906;SDS011;4992;51.628;6.664;2023-04-24T08:26:39;2.30;;;1.90;;
9906;SDS011;4992;51.628;6.664;2023-04-24T08:29:05;3.47;;;2.50;;
9906;SDS011;4992;51.628;6.664;2023-04-24T08:31:31;2.20;;;2.00;;
9906;SDS011;4992;51.628;6.664;2023-04-24T08:33:57;3.77;;;1.90;;
9906;SDS011;4992;51.628;6.664;2023-04-24T08:36:24;1.70;;;1.60;;
9906;SDS011;4992;51.628;6.664;2023-04-24T08:38:51;1.80;;;1.70;;
9906;SDS011;4992;51.628;6.664;2023-04-24T08:41:17;2.13;;;1.27;;
9906;SDS011;4992;51.628;6.664;2023-04-24T08:43:43;1.63;;;1.53;;
9906;SDS011;4992;51.628;6.664;2023-04-24T08:46:09;0.87;;;0.87;;
9906;SDS011;4992;51.628;6.664;2023-04-24T08:48:36;0.80;;;0.80;;
9906;SDS011;4992;51.628;6.664;2023-04-24T08:51:02;0.67;;;0.67;;
9906;SDS011;4992;51.628;6.664;2023-04-24T08:53:30;0.70;;;0.70;;
9906;SDS011;4992;51.628;6.664;2023-04-24T08:55:58;1.17;;;0.70;;
9906;SDS011;4992;51.628;6.664;2023-04-24T08:58:26;0.70;;;0.70;;
9906;SDS011;4992;51.628;6.664;2023-04-24T09:00:56;0.53;;;0.53;;
9906;SDS011;4992;51.628;6.664;2023-04-24T09:03:22;1.80;;;0.70;;
9906;SDS011;4992;51.628;6.664;2023-04-24T09:05:48;1.23;;;1.23;;
9906;SDS011;4992;51.628;6.664;2023-04-24T09:08:16;2.40;;;2.20;;
9906;SDS011;4992;51.628;6.664;2023-04-24T09:10:42;3.83;;;2.97;;
9906;SDS011;4992;51.628;6.664;2023-04-24T09:13:08;4.37;;;3.97;;
9906;SDS011;4992;51.628;6.664;2023-04-24T09:15:35;8.57;;;4.53;;
9906;SDS011;4992;51.628;6.664;2023-04-24T09:18:01;5.13;;;4.37;;
9906;SDS011;4992;51.628;6.664;2023-04-24T09:20:27;5.50;;;4.87;;
9906;SDS011;4992;51.628;6.664;2023-04-24T09:22:54;5.30;;;4.70;;
9906;SDS011;4992;51.628;6.664;2023-04-24T09:25:23;8.07;;;4.80;;
9906;SDS011;4992;51.628;6.664;2023-04-24T09:27:53;6.80;;;5.10;;
9906;SDS011;4992;51.628;6.664;2023-04-24T09:30:23;7.10;;;5.30;;
9906;SDS011;4992;51.628;6.664;2023-04-24T09:32:48;5.23;;;4.83;;
9906;SDS011;4992;51.628;6.664;2023-04-24T09:35:15;5.77;;;5.10;;
9906;SDS011;4992;51.628;6.664;2023-04-24T09:37:42;7.37;;;5.97;;
9906;SDS011;4992;51.628;6.664;2023-04-24T09:42:36;7.60;;;5.20;;
9906;SDS011;4992;51.628;6.664;2023-04-24T09:45:02;7.07;;;4.73;;
9906;SDS011;4992;51.628;6.664;2023-04-24T09:47:35;16.60;;;5.53;;
9906;SDS011;4992;51.628;6.664;2023-04-24T09:50:08;5.97;;;5.37;;
9906;SDS011;4992;51.628;6.664;2023-04-24T09:52:34;6.67;;;5.60;;
9906;SDS011;4992;51.628;6.664;2023-04-24T09:55:00;8.17;;;5.70;;
9906;SDS011;4992;51.628;6.664;2023-04-24T09:57:26;6.70;;;6.07;;
9906;SDS011;4992;51.628;6.664;2023-04-24T09:59:53;8.80;;;6.93;;
9906;SDS011;4992;51.628;6.664;2023-04-24T10:02:19;8.60;;;6.67;;
9906;SDS011;4992;51.628;6.664;2023-04-24T10:04:55;6.93;;;6.23;;
9906;SDS011;4992;51.628;6.664;2023-04-24T10:07:21;9.63;;;6.77;;
9906;SDS011;4992;51.628;6.664;2023-04-24T10:09:47;7.77;;;6.90;;
9906;SDS011;4992;51.628;6.664;2023-04-24T10:12:13;8.43;;;6.00;;
9906;SDS011;4992;51.628;6.664;2023-04-24T10:14:40;8.00;;;5.80;;
9906;SDS011;4992;51.628;6.664;2023-04-24T10:17:06;12.60;;;5.63;;
9906;SDS011;4992;51.628;6.664;2023-04-24T10:19:33;13.20;;;4.80;;
9906;SDS011;4992;51.628;6.664;2023-04-24T10:22:00;13.17;;;5.13;;
9906;SDS011;4992;51.628;6.664;2023-04-24T10:24:26;16.37;;;5.10;;
9906;SDS011;4992;51.628;6.664;2023-04-24T10:26:52;6.47;;;4.07;;
9906;SDS011;4992;51.628;6.664;2023-04-24T10:29:18;7.70;;;4.47;;
9906;SDS011;4992;51.628;6.664;2023-04-24T10:31:46;10.80;;;5.10;;
9906;SDS011;4992;51.628;6.664;2023-04-24T10:34:13;11.53;;;5.17;;
9906;SDS011;4992;51.628;6.664;2023-04-24T10:36:41;15.53;;;5.73;;
9906;SDS011;4992;51.628;6.664;2023-04-24T10:39:09;13.17;;;5.27;;
9906;SDS011;4992;51.628;6.664;2023-04-24T10:41:39;13.43;;;5.20;;
9906;SDS011;4992;51.628;6.664;2023-04-24T10:44:09;14.13;;;5.97;;
9906;SDS011;4992;51.628;6.664;2023-04-24T10:46:35;10.37;;;5.30;;
9906;SDS011;4992;51.628;6.664;2023-04-24T10:49:05;18.13;;;6.10;;
9906;SDS011;4992;51.628;6.664;2023-04-24T10:51:48;12.13;;;5.37;;
9906;SDS011;4992;51.628;6.664;2023-04-24T10:54:24;9.97;;;4.20;;
9906;SDS011;4992;51.628;6.664;2023-04-24T10:56:50;11.13;;;3.83;;
9906;SDS011;4992;51.628;6.664;2023-04-24T10:59:26;12.43;;;3.10;;
9906;SDS011;4992;51.628;6.664;2023-04-24T11:01:53;7.00;;;3.00;;
9906;SDS011;4992;51.628;6.664;2023-04-24T11:04:28;7.23;;;2.87;;
9906;SDS011;4992;51.628;6.664;2023-04-24T11:06:55;9.47;;;3.30;;
9906;SDS011;4992;51.628;6.664;2023-04-24T11:09:21;8.80;;;2.90;;
9906;SDS011;4992;51.628;6.664;2023-04-24T11:11:47;6.43;;;2.50;;
9906;SDS011;4992;51.628;6.664;2023-04-24T11:14:16;12.20;;;2.80;;
9906;SDS011;4992;51.628;6.664;2023-04-24T11:16:47;9.07;;;3.03;;
9906;SDS011;4992;51.628;6.664;2023-04-24T11:19:18;5.10;;;2.90;;
9906;SDS011;4992;51.628;6.664;2023-04-24T11:21:48;7.27;;;2.90;;
9906;SDS011;4992;51.628;6.664;2023-04-24T11:26:51;7.37;;;3.20;;
9906;SDS011;4992;51.628;6.664;2023-04-24T11:29:17;5.00;;;2.33;;
9906;SDS011;4992;51.628;6.664;2023-04-24T11:31:45;7.53;;;2.30;;
9906;SDS011;4992;51.628;6.664;2023-04-24T11:34:14;7.97;;;2.70;;
9906;SDS011;4992;51.628;6.664;2023-04-24T11:36:48;5.17;;;1.70;;
9906;SDS011;4992;51.628;6.664;2023-04-24T11:39:14;7.67;;;2.33;;
9906;SDS011;4992;51.628;6.664;2023-04-24T11:41:40;2.50;;;1.60;;
9906;SDS011;4992;51.628;6.664;2023-04-24T11:44:07;5.40;;;1.93;;
9906;SDS011;4992;51.628;6.664;2023-04-24T11:46:33;6.60;;;2.60;;
9906;SDS011;4992;51.628;6.664;2023-04-24T11:48:59;6.13;;;2.73;;
9906;SDS011;4992;51.628;6.664;2023-04-24T11:51:26;8.82;;;2.78;;
9906;SDS011;4992;51.628;6.664;2023-04-24T11:53:55;6.73;;;2.50;;
9906;SDS011;4992;51.628;6.664;2023-04-24T11:56:22;6.87;;;3.10;;
9906;SDS011;4992;51.628;6.664;2023-04-24T11:58:48;7.00;;;3.20;;
9906;SDS011;4992;51.628;6.664;2023-04-24T12:01:14;5.60;;;3.10;;
9906;SDS011;4992;51.628;6.664;2023-04-24T12:03:40;8.03;;;2.80;;
9906;SDS011;4992;51.628;6.664;2023-04-24T12:06:09;3.57;;;1.70;;
9906;SDS011;4992;51.628;6.664;2023-04-24T12:08:35;4.40;;;1.83;;
9906;SDS011;4992;51.628;6.664;2023-04-24T12:11:05;4.57;;;1.80;;
9906;SDS011;4992;51.628;6.664;2023-04-24T12:13:34;4.00;;;1.53;;
9906;SDS011;4992;51.628;6.664;2023-04-24T12:16:02;3.23;;;1.50;;
9906;SDS011;4992;51.628;6.664;2023-04-24T12:18:27;2.90;;;1.70;;
9906;SDS011;4992;51.628;6.664;2023-04-24T12:20:53;4.43;;;1.97;;
9906;SDS011;4992;51.628;6.664;2023-04-24T12:23:35;3.37;;;1.50;;
9906;SDS011;4992;51.628;6.664;2023-04-24T12:26:03;3.50;;;1.50;;
9906;SDS011;4992;51.628;6.664;2023-04-24T12:28:36;4.27;;;1.93;;
9906;SDS011;4992;51.628;6.664;2023-04-24T12:31:02;2.97;;;1.60;;
9906;SDS011;4992;51.628;6.664;2023-04-24T12:33:32;3.13;;;1.47;;
9906;SDS011;4992;51.628;6.664;2023-04-24T12:35:58;2.97;;;1.50;;
9906;SDS011;4992;51.628;6.664;2023-04-24T12:38:28;4.57;;;1.80;;
9906;SDS011;4992;51.628;6.664;2023-04-24T12:41:07;3.57;;;1.60;;
9906;SDS011;4992;51.628;6.664;2023-04-24T12:43:34;2.93;;;1.43;;
9906;SDS011;4992;51.628;6.664;2023-04-24T12:46:00;3.43;;;1.30;;
9906;SDS011;4992;51.628;6.664;2023-04-24T12:48:26;3.97;;;1.33;;
9906;SDS011;4992;51.628;6.664;2023-04-24T12:50:52;5.43;;;1.43;;
9906;SDS011;4992;51.628;6.664;2023-04-24T12:53:19;9.10;;;1.60;;
9906;SDS011;4992;51.628;6.664;2023-04-24T12:55:45;4.10;;;1.43;;
9906;SDS011;4992;51.628;6.664;2023-04-24T12:58:12;3.80;;;1.50;;
9906;SDS011;4992;51.628;6.664;2023-04-24T13:00:38;2.63;;;1.43;;
9906;SDS011;4992;51.628;6.664;2023-04-24T13:03:04;2.93;;;1.40;;
9906;SDS011;4992;51.628;6.664;2023-04-24T13:05:30;1.93;;;1.37;;
9906;SDS011;4992;51.628;6.664;2023-04-24T13:07:57;1.97;;;1.30;;
9906;SDS011;4992;51.628;6.664;2023-04-24T13:10:23;2.20;;;1.50;;
9906;SDS011;4992;51.628;6.664;2023-04-24T13:12:49;1.37;;;1.20;;
9906;SDS011;4992;51.628;6.664;2023-04-24T13:15:15;1.87;;;1.47;;
9906;SDS011;4992;51.628;6.664;2023-04-24T13:17:41;1.87;;;1.00;;
9906;SDS011;4992;51.628;6.664;2023-04-24T13:20:07;2.23;;;1.20;;
9906;SDS011;4992;51.628;6.664;2023-04-24T13:22:33;3.33;;;1.30;;
9906;SDS011;4992;51.628;6.664;2023-04-24T13:24:59;2.27;;;1.50;;
9906;SDS011;4992;51.628;6.664;2023-04-24T13:27:26;4.73;;;1.53;;
9906;SDS011;4992;51.628;6.664;2023-04-24T13:29:52;7.03;;;1.57;;
9906;SDS011;4992;51.628;6.664;2023-04-24T13:32:18;6.00;;;1.50;;
9906;SDS011;4992;51.628;6.664;2023-04-24T13:34:44;3.30;;;1.60;;
9906;SDS011;4992;51.628;6.664;2023-04-24T13:37:10;6.37;;;1.53;;
9906;SDS011;4992;51.628;6.664;2023-04-24T13:39:36;3.47;;;1.53;;
9906;SDS011;4992;51.628;6.664;2023-04-24T13:42:02;1.97;;;1.33;;
9906;SDS011;4992;51.628;6.664;2023-04-24T13:44:28;3.17;;;1.23;;
9906;SDS011;4992;51.628;6.664;2023-04-24T13:46:54;3.80;;;1.40;;
9906;SDS011;4992;51.628;6.664;2023-04-24T13:49:22;3.63;;;1.35;;
9906;SDS011;4992;51.628;6.664;2023-04-24T13:51:50;5.50;;;1.60;;
9906;SDS011;4992;51.628;6.664;2023-04-24T13:54:16;2.23;;;1.17;;
9906;SDS011;4992;51.628;6.664;2023-04-24T13:56:42;3.03;;;1.40;;
9906;SDS011;4992;51.628;6.664;2023-04-24T13:59:08;4.50;;;1.57;;
9906;SDS011;4992;51.628;6.664;2023-04-24T14:01:34;8.20;;;5.20;;
9906;SDS011;4992;51.628;6.664;2023-04-24T14:04:00;4.10;;;2.93;;
9906;SDS011;4992;51.628;6.664;2023-04-24T14:06:26;5.73;;;2.30;;
9906;SDS011;4992;51.628;6.664;2023-04-24T14:08:53;4.33;;;2.20;;
9906;SDS011;4992;51.628;6.664;2023-04-24T14:11:19;4.13;;;1.80;;
9906;SDS011;4992;51.628;6.664;2023-04-24T14:13:45;8.50;;;2.70;;
9906;SDS011;4992;51.628;6.664;2023-04-24T14:16:11;4.03;;;2.80;;
9906;SDS011;4992;51.628;6.664;2023-04-24T14:18:37;7.47;;;2.50;;
9906;SDS011;4992;51.628;6.664;2023-04-24T14:21:04;3.33;;;2.20;;
9906;SDS011;4992;51.628;6.664;2023-04-24T14:23:30;5.23;;;2.40;;
9906;SDS011;4992;51.628;6.664;2023-04-24T14:25:59;4.70;;;2.10;;
9906;SDS011;4992;51.628;6.664;2023-04-24T14:28:25;3.67;;;2.10;;
9906;SDS011;4992;51.628;6.664;2023-04-24T14:30:54;2.53;;;1.83;;
9906;SDS011;4992;51.628;6.664;2023-04-24T14:33:20;2.55;;;1.60;;
9906;SDS011;4992;51.628;6.664;2023-04-24T14:35:46;3.47;;;1.48;;
9906;SDS011;4992;51.628;6.664;2023-04-24T14:38:12;2.55;;;1.23;;
9906;SDS011;4992;51.628;6.664;2023-04-24T14:40:38;2.15;;;1.25;;
9906;SDS011;4992;51.628;6.664;2023-04-24T14:43:04;1.23;;;1.00;;
9906;SDS011;4992;51.628;6.664;2023-04-24T14:45:31;1.70;;;0.93;;
9906;SDS011;4992;51.628;6.664;2023-04-24T14:47:57;2.60;;;1.02;;
9906;SDS011;4992;51.628;6.664;2023-04-24T14:50:23;1.17;;;0.63;;
9906;SDS011;4992;51.628;6.664;2023-04-24T14:52:52;0.80;;;0.70;;
9906;SDS011;4992;51.628;6.664;2023-04-24T14:55:18;2.72;;;0.98;;
9906;SDS011;4992;51.628;6.664;2023-04-24T14:57:44;1.85;;;1.10;;
9906;SDS011;4992;51.628;6.664;2023-04-24T15:00:10;1.10;;;0.90;;
9906;SDS011;4992;51.628;6.664;2023-04-24T15:02:36;1.48;;;0.82;;
9906;SDS011;4992;51.628;6.664;2023-04-24T15:05:06;2.35;;;1.10;;
9906;SDS011;4992;51.628;6.664;2023-04-24T15:07:33;3.10;;;1.02;;
9906;SDS011;4992;51.628;6.664;2023-04-24T15:10:00;3.73;;;2.80;;
9906;SDS011;4992;51.628;6.664;2023-04-24T15:12:26;4.15;;;1.58;;